createdAt,value
2017-10-07T00:01:47.349Z,12.65
2017-10-07T00:04:14.896Z,12.68
2017-10-07T00:06:42.477Z,12.84
2017-10-07T00:09:10.058Z,12.91
2017-10-07T00:11:37.861Z,12.83
2017-10-07T00:14:05.430Z,12.80
2017-10-07T00:16:33.016Z,13.00
2017-10-07T00:19:00.828Z,12.98
2017-10-07T00:21:28.424Z,12.99
2017-10-07T00:23:56.011Z,12.88
2017-10-07T00:26:23.561Z,12.75
2017-10-07T00:28:51.411Z,12.54
2017-10-07T00:31:19.263Z,12.59
2017-10-07T00:33:46.785Z,12.50
2017-10-07T00:36:14.527Z,12.66
2017-10-07T00:38:42.086Z,12.54
2017-10-07T00:41:09.663Z,12.60
2017-10-07T00:43:37.256Z,12.47
2017-10-07T00:46:04.886Z,12.44
2017-10-07T00:48:32.634Z,12.47
2017-10-07T00:51:00.375Z,12.53
2017-10-07T00:53:28.145Z,12.72
2017-10-07T00:55:55.674Z,12.71
2017-10-07T00:58:23.277Z,12.66
2017-10-07T01:00:50.919Z,12.60
2017-10-07T01:03:18.476Z,12.27
2017-10-07T01:05:46.079Z,12.00
2017-10-07T01:08:13.845Z,11.70
2017-10-07T01:10:41.652Z,11.89
2017-10-07T01:13:09.192Z,11.87
2017-10-07T01:15:36.819Z,11.86
2017-10-07T01:18:04.590Z,11.99
2017-10-07T01:20:32.208Z,11.95
2017-10-07T01:23:00.442Z,11.98
2017-10-07T01:25:28.008Z,11.98
2017-10-07T01:27:55.714Z,11.94
2017-10-07T01:30:23.364Z,11.91
2017-10-07T01:32:51.159Z,11.85
2017-10-07T01:35:18.717Z,11.86
2017-10-07T01:37:46.565Z,11.77
2017-10-07T01:40:14.112Z,11.69
2017-10-07T01:42:41.887Z,11.62
2017-10-07T01:45:09.460Z,11.69
2017-10-07T01:47:37.308Z,11.62
2017-10-07T01:50:04.953Z,11.52
2017-10-07T01:52:32.594Z,11.40
2017-10-07T01:55:00.186Z,11.42
2017-10-07T01:57:27.742Z,11.41
2017-10-07T01:59:55.362Z,11.48
2017-10-07T02:02:22.979Z,11.38
2017-10-07T02:04:50.648Z,11.40
2017-10-07T02:07:18.190Z,11.54
2017-10-07T02:09:45.791Z,11.47
2017-10-07T02:12:13.392Z,11.57
2017-10-07T02:14:41.151Z,11.63
2017-10-07T02:17:08.765Z,11.47
2017-10-07T02:19:36.616Z,11.56
2017-10-07T02:22:04.202Z,11.51
2017-10-07T02:24:31.778Z,11.54
2017-10-07T02:27:00.300Z,11.46
2017-10-07T02:29:28.043Z,11.47
2017-10-07T02:31:55.627Z,11.61
2017-10-07T02:34:23.999Z,11.58
2017-10-07T02:36:51.752Z,11.55
2017-10-07T02:39:19.380Z,11.68
2017-10-07T02:41:48.241Z,11.78
2017-10-07T02:44:16.803Z,11.44
2017-10-07T02:46:44.438Z,11.20
2017-10-07T02:49:12.960Z,11.28
2017-10-07T02:51:41.422Z,11.24
2017-10-07T02:54:08.994Z,11.32
2017-10-07T02:56:36.565Z,11.30
2017-10-07T02:59:04.117Z,11.34
2017-10-07T03:01:31.958Z,11.30
2017-10-07T03:03:59.794Z,11.25
2017-10-07T03:06:27.611Z,11.47
2017-10-07T03:08:55.272Z,11.33
2017-10-07T03:11:23.623Z,11.45
2017-10-07T03:13:51.142Z,11.37
2017-10-07T03:16:19.155Z,11.45
2017-10-07T03:18:46.911Z,11.45
2017-10-07T03:21:14.662Z,11.33
2017-10-07T03:23:42.274Z,11.40
2017-10-07T03:26:09.817Z,11.27
2017-10-07T03:28:37.393Z,11.35
2017-10-07T03:31:05.005Z,11.16
2017-10-07T03:33:32.546Z,11.08
2017-10-07T03:36:00.418Z,11.11
2017-10-07T03:38:28.021Z,11.07
2017-10-07T03:40:55.590Z,11.24
2017-10-07T03:43:23.399Z,11.19
2017-10-07T03:45:51.650Z,11.21
2017-10-07T03:48:19.454Z,11.17
2017-10-07T03:50:47.210Z,11.21
2017-10-07T03:53:15.384Z,11.28
2017-10-07T03:55:42.999Z,11.38
2017-10-07T03:58:10.738Z,11.38
2017-10-07T04:00:38.359Z,11.27
2017-10-07T04:03:06.122Z,10.92
2017-10-07T04:05:33.706Z,11.10
2017-10-07T04:08:01.330Z,11.20
2017-10-07T04:10:29.106Z,11.11
2017-10-07T04:12:56.960Z,11.41
2017-10-07T04:15:24.579Z,11.13
2017-10-07T04:17:52.204Z,11.14
2017-10-07T04:20:19.839Z,11.03
2017-10-07T04:22:47.557Z,11.31
2017-10-07T04:25:15.207Z,11.22
2017-10-07T04:27:43.070Z,11.25
2017-10-07T04:30:10.639Z,11.34
2017-10-07T04:32:38.400Z,11.34
2017-10-07T04:35:05.995Z,11.10
2017-10-07T04:37:33.606Z,11.13
2017-10-07T04:40:01.609Z,11.11
2017-10-07T04:42:30.040Z,11.23
2017-10-07T04:44:58.041Z,11.31
2017-10-07T04:47:26.833Z,11.39
2017-10-07T04:49:54.611Z,11.51
2017-10-07T04:52:22.271Z,11.37
2017-10-07T04:54:53.501Z,11.46
2017-10-07T04:57:21.262Z,11.40
2017-10-07T04:59:48.962Z,11.37
2017-10-07T05:02:16.709Z,11.41
2017-10-07T05:04:44.522Z,11.21
2017-10-07T05:07:12.102Z,11.23
2017-10-07T05:09:39.710Z,11.15
2017-10-07T05:12:07.815Z,11.13
2017-10-07T05:14:35.610Z,11.21
2017-10-07T05:17:03.209Z,11.15
2017-10-07T05:19:30.984Z,11.16
2017-10-07T05:21:59.414Z,11.35
2017-10-07T05:24:27.018Z,11.21
2017-10-07T05:26:54.587Z,11.19
2017-10-07T05:29:22.218Z,11.30
2017-10-07T05:31:49.852Z,11.22
2017-10-07T05:34:17.482Z,11.33
2017-10-07T05:36:45.311Z,11.22
2017-10-07T05:39:13.826Z,11.32
2017-10-07T05:41:41.376Z,11.34
2017-10-07T05:44:08.928Z,11.22
2017-10-07T05:46:36.845Z,11.32
2017-10-07T05:49:04.480Z,11.45
2017-10-07T05:51:32.005Z,11.42
2017-10-07T05:54:00.401Z,11.43
2017-10-07T05:56:28.086Z,11.58
2017-10-07T05:58:55.870Z,11.63
2017-10-07T06:01:23.496Z,11.70
2017-10-07T06:03:51.098Z,11.53
2017-10-07T06:06:18.899Z,11.62
2017-10-07T06:08:46.493Z,11.55
2017-10-07T06:11:14.950Z,11.61
2017-10-07T06:13:42.516Z,11.64
2017-10-07T06:16:10.324Z,11.70
2017-10-07T06:18:39.045Z,11.67
2017-10-07T06:21:12.763Z,11.72
2017-10-07T06:23:40.409Z,11.59
2017-10-07T06:26:08.049Z,11.58
2017-10-07T06:28:36.039Z,11.66
2017-10-07T06:31:04.433Z,11.65
2017-10-07T06:33:31.971Z,11.72
2017-10-07T06:36:03.082Z,11.60
2017-10-07T06:38:30.735Z,11.60
2017-10-07T06:40:58.390Z,11.71
2017-10-07T06:43:26.851Z,11.47
2017-10-07T06:45:54.607Z,11.56
2017-10-07T06:48:22.296Z,11.44
2017-10-07T06:50:49.955Z,11.41
2017-10-07T06:53:17.589Z,11.34
2017-10-07T06:55:45.376Z,11.40
2017-10-07T06:58:13.575Z,11.37
2017-10-07T07:00:41.358Z,11.53
2017-10-07T07:03:08.965Z,11.69
2017-10-07T07:05:36.617Z,11.45
2017-10-07T07:08:04.300Z,11.37
2017-10-07T07:10:32.866Z,11.35
2017-10-07T07:13:00.573Z,11.22
2017-10-07T07:15:28.283Z,10.85
2017-10-07T07:17:55.940Z,12.39
2017-10-07T07:20:23.594Z,11.92
2017-10-07T07:22:51.422Z,10.54
2017-10-07T07:25:19.057Z,9.95
2017-10-07T07:27:46.694Z,9.47
2017-10-07T07:30:14.336Z,9.08
2017-10-07T07:32:41.991Z,8.75
2017-10-07T07:35:09.641Z,8.87
2017-10-07T07:37:38.275Z,8.41
2017-10-07T07:40:05.883Z,8.55
2017-10-07T07:42:33.520Z,8.45
2017-10-07T07:45:01.181Z,8.34
2017-10-07T07:47:29.554Z,8.22
2017-10-07T07:49:57.216Z,8.24
2017-10-07T07:52:24.955Z,8.14
2017-10-07T07:54:52.621Z,8.11
2017-10-07T07:57:20.271Z,7.89
2017-10-07T07:59:48.102Z,8.10
2017-10-07T08:02:19.861Z,7.75
2017-10-07T08:04:47.568Z,7.82
2017-10-07T08:07:15.183Z,7.84
2017-10-07T08:09:43.199Z,7.79
2017-10-07T08:12:11.064Z,7.79
2017-10-07T08:14:38.661Z,8.21
2017-10-07T08:17:06.230Z,9.40
2017-10-07T08:20:11.948Z,10.96
2017-10-07T08:22:39.583Z,10.05
2017-10-07T08:25:07.879Z,9.61
2017-10-07T08:27:35.867Z,9.49
2017-10-07T08:30:07.489Z,9.37
2017-10-07T08:32:35.087Z,9.28
2017-10-07T08:35:03.090Z,9.58
2017-10-07T08:37:31.433Z,9.20
2017-10-07T08:40:00.097Z,8.97
2017-10-07T08:42:27.853Z,9.12
2017-10-07T08:44:56.282Z,9.39
2017-10-07T08:47:23.818Z,9.57
2017-10-07T08:49:51.538Z,9.10
2017-10-07T08:52:19.127Z,9.06
2017-10-07T08:54:47.560Z,9.22
2017-10-07T08:57:15.913Z,9.36
2017-10-07T08:59:43.601Z,9.75
2017-10-07T09:02:11.275Z,9.66
2017-10-07T09:04:39.369Z,9.73
2017-10-07T09:07:07.201Z,9.48
2017-10-07T09:09:34.902Z,9.53
2017-10-07T09:12:03.540Z,9.09
2017-10-07T09:14:31.396Z,9.04
2017-10-07T09:16:59.642Z,9.27
2017-10-07T09:19:27.293Z,9.43
2017-10-07T09:21:54.910Z,9.93
2017-10-07T09:24:23.846Z,10.31
2017-10-07T09:26:52.007Z,12.08
2017-10-07T09:29:19.560Z,11.02
2017-10-07T09:31:47.140Z,10.63
2017-10-07T09:34:14.729Z,10.24
2017-10-07T09:36:42.384Z,10.40
2017-10-07T09:39:10.043Z,10.12
2017-10-07T09:41:37.658Z,10.34
2017-10-07T09:44:05.234Z,10.13
2017-10-07T09:46:32.869Z,10.16
2017-10-07T09:49:02.638Z,10.17
2017-10-07T09:51:30.167Z,10.30
2017-10-07T09:53:57.998Z,10.49
2017-10-07T09:56:26.485Z,10.46
2017-10-07T09:58:55.027Z,10.50
2017-10-07T10:01:25.542Z,10.39
2017-10-07T10:03:53.356Z,10.25
2017-10-07T10:06:20.886Z,10.00
2017-10-07T10:08:48.513Z,10.13
2017-10-07T10:11:16.797Z,10.16
2017-10-07T10:13:46.027Z,10.24
2017-10-07T10:16:14.370Z,10.35
2017-10-07T10:18:42.067Z,10.49
2017-10-07T10:21:11.594Z,10.61
2017-10-07T10:23:39.604Z,10.52
2017-10-07T10:26:11.902Z,10.44
2017-10-07T10:28:40.554Z,10.41
2017-10-07T10:31:10.062Z,10.36
2017-10-07T10:33:58.251Z,9.05
2017-10-07T10:39:37.034Z,9.98
2017-10-07T10:42:08.956Z,10.21
2017-10-07T10:44:41.827Z,10.35
2017-10-07T10:47:37.923Z,10.50
2017-10-07T10:50:09.576Z,10.53
2017-10-07T10:56:01.607Z,10.67
2017-10-07T10:58:29.361Z,10.61
2017-10-07T11:00:56.963Z,10.79
2017-10-07T11:03:28.635Z,10.87
2017-10-07T11:05:56.851Z,10.94
2017-10-07T11:08:26.530Z,10.70
2017-10-07T11:10:55.727Z,10.38
2017-10-07T11:13:23.338Z,10.55
2017-10-07T11:15:50.941Z,10.68
2017-10-07T11:18:18.742Z,10.67
2017-10-07T11:20:46.402Z,10.68
2017-10-07T11:23:14.310Z,10.69
2017-10-07T11:25:45.282Z,10.69
2017-10-07T11:28:16.572Z,10.78
2017-10-07T11:30:44.198Z,10.55
2017-10-07T11:33:11.989Z,10.70
2017-10-07T11:38:22.294Z,10.77
2017-10-07T11:40:50.134Z,10.84
2017-10-07T11:43:19.528Z,10.56
2017-10-07T11:45:47.307Z,10.50
2017-10-07T11:48:16.390Z,10.63
2017-10-07T11:50:44.297Z,10.70
2017-10-07T11:53:14.880Z,10.70
2017-10-07T11:55:43.170Z,10.77
2017-10-07T11:58:11.155Z,10.76
2017-10-07T12:00:38.766Z,10.78
2017-10-07T12:03:07.198Z,10.62
2017-10-07T12:05:35.264Z,10.52
2017-10-07T12:08:02.873Z,10.61
2017-10-07T12:10:30.962Z,10.52
2017-10-07T12:12:59.570Z,10.61
2017-10-07T12:15:30.023Z,10.62
2017-10-07T12:18:01.380Z,10.39
2017-10-07T12:20:35.510Z,10.51
2017-10-07T12:23:05.278Z,10.35
2017-10-07T12:25:35.570Z,10.23
2017-10-07T12:28:11.940Z,10.11
2017-10-07T12:30:44.283Z,10.13
2017-10-07T12:33:15.197Z,10.15
2017-10-07T12:35:42.774Z,10.21
2017-10-07T12:38:11.598Z,10.17
2017-10-07T12:40:42.987Z,10.24
2017-10-07T12:43:10.628Z,10.20
2017-10-07T12:45:38.420Z,10.08
2017-10-07T12:48:06.006Z,10.14
2017-10-07T12:50:33.709Z,10.32
2017-10-07T12:53:01.320Z,10.27
2017-10-07T12:55:28.868Z,10.49
2017-10-07T12:57:57.112Z,10.41
2017-10-07T13:00:25.286Z,10.31
2017-10-07T13:02:52.845Z,10.35
2017-10-07T13:05:20.378Z,10.16
2017-10-07T13:07:47.990Z,10.28
2017-10-07T13:10:16.247Z,10.14
2017-10-07T13:12:44.153Z,9.95
2017-10-07T13:15:11.757Z,9.82
2017-10-07T13:17:39.356Z,10.03
2017-10-07T13:20:07.176Z,9.85
2017-10-07T13:22:34.806Z,9.42
2017-10-07T13:25:02.448Z,9.77
2017-10-07T13:27:30.886Z,9.79
2017-10-07T13:29:58.736Z,9.77
2017-10-07T13:32:26.899Z,9.78
2017-10-07T13:34:54.451Z,9.72
2017-10-07T13:37:22.022Z,9.77
2017-10-07T13:39:49.627Z,9.62
2017-10-07T13:42:17.205Z,9.65
2017-10-07T13:44:45.117Z,9.74
2017-10-07T13:47:12.703Z,9.81
2017-10-07T13:49:41.087Z,9.78
2017-10-07T13:52:08.696Z,9.58
2017-10-07T13:54:36.321Z,9.54
2017-10-07T13:57:04.602Z,9.58
2017-10-07T13:59:32.181Z,9.57
2017-10-07T14:02:00.522Z,9.28
2017-10-07T14:04:28.476Z,9.22
2017-10-07T14:06:57.438Z,9.24
2017-10-07T14:09:25.070Z,8.58
2017-10-07T14:11:52.853Z,8.47
2017-10-07T14:14:20.571Z,8.68
2017-10-07T14:16:49.248Z,8.78
2017-10-07T14:19:16.979Z,8.83
2017-10-07T14:21:44.585Z,8.63
2017-10-07T14:24:12.202Z,8.71
2017-10-07T14:26:40.167Z,8.84
2017-10-07T14:29:07.927Z,8.84
2017-10-07T14:31:36.519Z,8.84
2017-10-07T14:34:04.254Z,8.60
2017-10-07T14:36:31.792Z,8.51
2017-10-07T14:39:01.207Z,8.10
2017-10-07T14:41:28.836Z,8.16
2017-10-07T14:43:56.726Z,8.27
2017-10-07T14:46:24.361Z,8.33
2017-10-07T14:48:52.515Z,8.48
2017-10-07T14:51:20.872Z,8.41
2017-10-07T14:53:48.574Z,8.48
2017-10-07T14:56:16.215Z,8.37
2017-10-07T14:58:43.939Z,8.38
2017-10-07T15:01:11.687Z,8.19
2017-10-07T15:03:39.485Z,8.20
2017-10-07T15:06:07.071Z,8.12
2017-10-07T15:08:34.631Z,8.07
2017-10-07T15:11:02.215Z,8.21
2017-10-07T15:13:29.813Z,8.25
2017-10-07T15:15:57.579Z,8.06
2017-10-07T15:18:25.126Z,7.79
2017-10-07T15:20:52.726Z,8.05
2017-10-07T15:23:20.367Z,7.88
2017-10-07T15:25:48.060Z,7.73
2017-10-07T15:28:16.455Z,7.80
2017-10-07T15:30:44.045Z,7.90
2017-10-07T15:33:11.590Z,7.83
2017-10-07T15:35:39.175Z,7.75
2017-10-07T15:38:06.806Z,7.95
2017-10-07T15:40:34.446Z,7.94
2017-10-07T15:43:02.115Z,7.88
2017-10-07T15:45:30.183Z,7.88
2017-10-07T15:47:57.836Z,7.72
2017-10-07T15:50:25.398Z,7.83
2017-10-07T15:52:53.124Z,7.87
2017-10-07T15:55:20.719Z,7.58
2017-10-07T15:57:48.333Z,7.60
2017-10-07T16:00:16.000Z,7.40
2017-10-07T16:02:43.551Z,7.55
2017-10-07T16:05:11.105Z,7.68
2017-10-07T16:07:38.806Z,7.58
2017-10-07T16:10:06.507Z,7.64
2017-10-07T16:12:34.099Z,7.68
2017-10-07T16:15:02.881Z,7.58
2017-10-07T16:17:30.659Z,7.72
2017-10-07T16:19:58.378Z,7.58
2017-10-07T16:22:26.182Z,7.59
2017-10-07T16:24:54.183Z,7.47
2017-10-07T16:27:22.507Z,7.59
2017-10-07T16:29:50.914Z,7.47
2017-10-07T16:32:18.694Z,7.39
2017-10-07T16:34:46.967Z,7.36
2017-10-07T16:37:14.753Z,7.39
2017-10-07T16:39:42.871Z,7.42
2017-10-07T16:42:11.095Z,7.34
2017-10-07T16:44:39.541Z,7.14
2017-10-07T16:47:07.676Z,7.15
2017-10-07T16:49:35.715Z,6.99
2017-10-07T16:52:03.756Z,6.88
2017-10-07T16:54:31.705Z,7.01
2017-10-07T16:56:59.460Z,7.23
2017-10-07T16:59:27.122Z,7.20
2017-10-07T17:01:54.791Z,7.18
2017-10-07T17:04:22.429Z,7.38
2017-10-07T17:06:50.029Z,7.22
2017-10-07T17:09:17.872Z,7.20
2017-10-07T17:11:45.644Z,7.16
2017-10-07T17:14:13.691Z,7.12
2017-10-07T17:16:41.468Z,7.04
2017-10-07T17:19:10.912Z,7.08
2017-10-07T17:21:40.476Z,6.75
2017-10-07T17:24:11.702Z,6.68
2017-10-07T17:26:50.115Z,6.63
2017-10-07T17:29:17.910Z,6.82
2017-10-07T17:31:47.058Z,6.92
2017-10-07T17:34:14.755Z,6.99
2017-10-07T17:36:42.289Z,7.08
2017-10-07T17:39:10.107Z,7.00
2017-10-07T17:41:39.283Z,6.95
2017-10-07T17:44:07.520Z,6.84
2017-10-07T17:46:35.284Z,6.98
2017-10-07T17:49:05.122Z,7.01
2017-10-07T17:51:33.694Z,7.06
2017-10-07T17:54:01.406Z,6.88
2017-10-07T17:56:29.057Z,6.65
2017-10-07T17:58:56.957Z,6.63
2017-10-07T18:01:25.423Z,6.57
2017-10-07T18:03:53.175Z,6.70
2017-10-07T18:06:21.547Z,6.91
2017-10-07T18:08:49.949Z,6.90
2017-10-07T18:11:17.498Z,6.91
2017-10-07T18:13:45.168Z,6.90
2017-10-07T18:16:12.779Z,7.00
2017-10-07T18:18:40.418Z,7.07
2017-10-07T18:21:08.068Z,7.12
2017-10-07T18:23:35.652Z,7.03
2017-10-07T18:26:03.197Z,7.25
2017-10-07T18:28:30.712Z,7.29
2017-10-07T18:30:58.311Z,7.46
2017-10-07T18:33:25.847Z,7.32
2017-10-07T18:35:53.394Z,7.36
2017-10-07T18:38:21.383Z,7.41
2017-10-07T18:40:49.282Z,7.43
2017-10-07T18:43:16.816Z,7.37
2017-10-07T18:45:44.412Z,7.43
2017-10-07T18:48:12.017Z,7.35
2017-10-07T18:50:40.536Z,7.17
2017-10-07T18:53:08.084Z,7.22
2017-10-07T18:55:35.825Z,7.29
2017-10-07T18:58:03.741Z,7.27
2017-10-07T19:00:31.370Z,7.19
2017-10-07T19:02:58.967Z,7.19
2017-10-07T19:05:26.797Z,7.42
2017-10-07T19:07:54.429Z,7.19
2017-10-07T19:10:22.610Z,7.34
2017-10-07T19:12:50.224Z,7.31
2017-10-07T19:15:18.786Z,7.25
2017-10-07T19:17:47.152Z,7.15
2017-10-07T19:20:14.906Z,7.18
2017-10-07T19:22:42.594Z,7.41
2017-10-07T19:25:10.349Z,7.52
2017-10-07T19:27:37.890Z,7.78
2017-10-07T19:30:07.533Z,8.18
2017-10-07T19:32:35.344Z,8.26
2017-10-07T19:35:03.161Z,8.08
2017-10-07T19:37:30.767Z,8.01
2017-10-07T19:39:58.938Z,7.93
2017-10-07T19:42:26.559Z,8.17
2017-10-07T19:44:54.189Z,8.19
2017-10-07T19:47:22.108Z,8.43
2017-10-07T19:49:50.036Z,8.49
2017-10-07T19:52:17.937Z,8.57
2017-10-07T19:54:45.879Z,8.32
2017-10-07T19:57:14.872Z,8.15
2017-10-07T19:59:42.473Z,8.08
2017-10-07T20:02:10.059Z,8.04
2017-10-07T20:04:37.690Z,8.14
2017-10-07T20:07:05.246Z,8.16
2017-10-07T20:09:32.803Z,8.05
2017-10-07T20:12:00.337Z,8.12
2017-10-07T20:14:28.424Z,8.04
2017-10-07T20:16:56.066Z,7.97
2017-10-07T20:19:23.733Z,7.97
2017-10-07T20:21:51.617Z,8.06
2017-10-07T20:24:19.211Z,8.35
2017-10-07T20:26:46.757Z,8.49
2017-10-07T20:29:14.275Z,8.36
2017-10-07T20:31:42.705Z,8.32
2017-10-07T20:34:10.235Z,8.26
2017-10-07T20:36:38.045Z,8.17
2017-10-07T20:39:05.687Z,8.12
2017-10-07T20:41:33.213Z,8.01
2017-10-07T20:44:00.720Z,8.16
2017-10-07T20:46:28.272Z,8.07
2017-10-07T20:48:55.875Z,8.00
2017-10-07T20:51:23.419Z,7.98
2017-10-07T20:53:51.000Z,8.17
2017-10-07T20:56:18.539Z,8.19
2017-10-07T20:58:46.155Z,8.17
2017-10-07T21:01:13.786Z,7.95
2017-10-07T21:03:41.345Z,8.06
2017-10-07T21:06:09.305Z,8.09
2017-10-07T21:08:36.860Z,8.10
2017-10-07T21:11:04.458Z,8.12
2017-10-07T21:13:32.039Z,7.93
2017-10-07T21:15:59.667Z,7.97
2017-10-07T21:18:27.220Z,7.71
2017-10-07T21:20:54.883Z,7.87
2017-10-07T21:23:22.503Z,8.05
2017-10-07T21:25:50.047Z,8.05
2017-10-07T21:28:17.608Z,8.02
2017-10-07T21:30:45.791Z,8.03
2017-10-07T21:33:13.589Z,7.95
2017-10-07T21:35:41.327Z,7.96
2017-10-07T21:38:08.963Z,7.97
2017-10-07T21:40:36.876Z,7.82
2017-10-07T21:43:04.638Z,8.01
2017-10-07T21:45:32.567Z,8.19
2017-10-07T21:48:00.108Z,8.13
2017-10-07T21:50:28.605Z,7.73
2017-10-07T21:52:57.003Z,8.00
2017-10-07T21:55:25.314Z,7.74
2017-10-07T21:57:52.927Z,7.82
2017-10-07T22:00:20.663Z,8.02
2017-10-07T22:02:48.447Z,7.80
2017-10-07T22:05:16.007Z,7.99
2017-10-07T22:07:43.931Z,7.93
2017-10-07T22:10:11.555Z,7.82
2017-10-07T22:12:39.101Z,7.64
2017-10-07T22:15:06.721Z,7.73
2017-10-07T22:17:35.010Z,7.69
2017-10-07T22:20:02.561Z,7.98
2017-10-07T22:22:30.275Z,7.96
2017-10-07T22:24:57.982Z,8.05
2017-10-07T22:27:25.567Z,8.19
2017-10-07T22:29:53.199Z,8.08
2017-10-07T22:32:20.926Z,8.32
2017-10-07T22:34:49.208Z,8.03
2017-10-07T22:37:17.339Z,8.02
2017-10-07T22:39:45.948Z,8.00
2017-10-07T22:42:13.590Z,7.73
2017-10-07T22:44:41.117Z,7.83
2017-10-07T22:47:08.739Z,8.11
2017-10-07T22:49:37.231Z,8.17
2017-10-07T22:52:04.999Z,8.08
2017-10-07T22:54:33.266Z,8.03
2017-10-07T22:57:00.974Z,8.04
2017-10-07T22:59:28.651Z,8.12
2017-10-07T23:01:56.317Z,7.79
2017-10-07T23:04:23.967Z,7.77
2017-10-07T23:06:52.127Z,7.77
2017-10-07T23:09:19.706Z,7.69
2017-10-07T23:11:47.278Z,7.71
2017-10-07T23:14:14.881Z,7.84
2017-10-07T23:16:42.516Z,7.60
2017-10-07T23:19:10.362Z,7.73
2017-10-07T23:21:37.924Z,7.33
2017-10-07T23:24:05.601Z,7.64
2017-10-07T23:26:33.139Z,7.84
2017-10-07T23:29:00.659Z,7.66
2017-10-07T23:31:28.230Z,7.60
2017-10-07T23:33:55.808Z,7.63
2017-10-07T23:36:23.573Z,7.74
2017-10-07T23:38:51.166Z,7.29
2017-10-07T23:41:18.703Z,7.79
2017-10-07T23:43:46.439Z,7.96
2017-10-07T23:46:14.055Z,8.04
2017-10-07T23:48:41.847Z,7.73
2017-10-07T23:51:09.660Z,7.95
2017-10-07T23:53:37.468Z,8.11
2017-10-07T23:56:05.182Z,8.07
2017-10-07T23:58:32.932Z,8.12
